createdAt,value
2023-03-16T00:00:33.195Z,6.70
2023-03-16T00:01:33.185Z,6.80
2023-03-16T00:03:52.986Z,6.40
2023-03-16T00:04:52.957Z,6.20
2023-03-16T00:05:52.959Z,6.70
2023-03-16T00:06:52.959Z,6.90
2023-03-16T00:07:52.934Z,6.10
2023-03-16T00:08:52.921Z,5.80
2023-03-16T00:09:52.905Z,6.40
2023-03-16T00:10:52.891Z,6.20
2023-03-16T00:11:52.884Z,5.60
2023-03-16T00:12:52.871Z,5.90
2023-03-16T00:13:52.874Z,6.00
2023-03-16T00:14:52.848Z,5.70
2023-03-16T00:15:52.845Z,5.70
2023-03-16T00:16:52.834Z,5.40
2023-03-16T00:17:52.829Z,5.30
2023-03-16T00:18:52.818Z,5.20
2023-03-16T00:19:52.803Z,5.70
2023-03-16T00:20:52.813Z,6.20
2023-03-16T00:21:52.803Z,6.00
2023-03-16T00:22:52.782Z,5.90
2023-03-16T00:23:52.774Z,5.80
2023-03-16T00:24:52.828Z,5.50
2023-03-16T00:25:52.743Z,6.10
2023-03-16T00:26:52.730Z,5.30
2023-03-16T00:27:52.722Z,6.10
2023-03-16T00:28:52.717Z,6.40
2023-03-16T00:29:52.699Z,6.10
2023-03-16T00:30:52.688Z,6.50
2023-03-16T00:31:52.733Z,6.20
2023-03-16T00:32:52.712Z,5.70
2023-03-16T00:33:52.666Z,6.10
2023-03-16T00:34:52.648Z,5.90
2023-03-16T00:35:52.754Z,6.20
2023-03-16T00:36:52.620Z,6.30
2023-03-16T00:37:52.703Z,7.00
2023-03-16T00:38:52.606Z,7.10
2023-03-16T00:39:52.589Z,7.10
2023-03-16T00:40:52.571Z,7.20
2023-03-16T00:41:52.565Z,6.30
2023-03-16T00:42:52.552Z,6.60
2023-03-16T00:43:52.570Z,6.50
2023-03-16T00:44:52.529Z,6.10
2023-03-16T00:45:52.593Z,5.80
2023-03-16T00:46:52.513Z,5.60
2023-03-16T00:47:52.500Z,6.10
2023-03-16T00:48:52.488Z,5.90
2023-03-16T00:49:52.493Z,6.60
2023-03-16T00:50:52.471Z,6.60
2023-03-16T00:51:52.463Z,6.20
2023-03-16T00:52:52.442Z,6.00
2023-03-16T00:53:52.440Z,5.80
2023-03-16T00:54:52.432Z,6.00
2023-03-16T00:55:52.412Z,6.50
2023-03-16T00:56:52.401Z,6.70
2023-03-16T00:57:52.394Z,6.30
2023-03-16T00:58:52.380Z,5.90
2023-03-16T00:59:52.402Z,6.20
2023-03-16T01:00:52.387Z,6.10
2023-03-16T01:01:52.349Z,6.60
2023-03-16T01:02:52.373Z,6.80
2023-03-16T01:03:52.350Z,7.00
2023-03-16T01:04:52.334Z,6.70
2023-03-16T01:05:52.319Z,6.80
2023-03-16T01:06:52.305Z,7.30
2023-03-16T01:07:52.304Z,7.00
2023-03-16T01:08:52.287Z,6.60
2023-03-16T01:09:52.278Z,6.30
2023-03-16T01:10:52.254Z,6.50
2023-03-16T01:11:52.245Z,6.60
2023-03-16T01:12:52.230Z,7.20
2023-03-16T01:13:52.220Z,6.80
2023-03-16T01:14:52.219Z,7.90
2023-03-16T01:15:52.201Z,7.60
2023-03-16T01:16:52.325Z,7.00
2023-03-16T01:17:52.184Z,6.80
2023-03-16T01:18:52.166Z,7.50
2023-03-16T01:19:52.178Z,7.10
2023-03-16T01:20:52.152Z,6.60
2023-03-16T01:21:52.136Z,6.10
2023-03-16T01:22:52.129Z,6.30
2023-03-16T01:23:52.122Z,7.20
2023-03-16T01:24:52.120Z,7.20
2023-03-16T01:25:52.098Z,7.60
2023-03-16T01:26:52.086Z,7.60
2023-03-16T01:27:52.082Z,8.10
2023-03-16T01:28:52.070Z,8.50
2023-03-16T01:29:52.068Z,8.60
2023-03-16T01:30:52.073Z,7.00
2023-03-16T01:31:52.046Z,7.30
2023-03-16T01:32:52.052Z,7.10
2023-03-16T01:33:52.015Z,7.40
2023-03-16T01:34:52.013Z,6.90
2023-03-16T01:35:52.038Z,6.40
2023-03-16T01:36:51.989Z,6.10
2023-03-16T01:37:51.976Z,6.70
2023-03-16T01:38:51.962Z,6.40
2023-03-16T01:39:51.965Z,6.70
2023-03-16T01:40:51.947Z,6.20
2023-03-16T01:41:51.932Z,6.20
2023-03-16T01:42:51.920Z,6.10
2023-03-16T01:43:51.916Z,6.20
2023-03-16T01:44:51.906Z,7.00
2023-03-16T01:45:51.953Z,6.30
2023-03-16T01:46:51.871Z,6.20
2023-03-16T01:47:51.874Z,6.80
2023-03-16T01:48:51.868Z,6.20
2023-03-16T01:49:51.863Z,6.40
2023-03-16T01:50:51.837Z,6.60
2023-03-16T01:51:51.826Z,7.10
2023-03-16T01:52:51.815Z,6.80
2023-03-16T01:53:51.811Z,6.70
2023-03-16T01:54:51.808Z,7.50
2023-03-16T01:55:51.789Z,7.10
2023-03-16T01:56:51.782Z,7.60
2023-03-16T01:57:51.774Z,7.10
2023-03-16T01:58:51.756Z,6.70
2023-03-16T01:59:51.758Z,6.30
2023-03-16T02:00:51.730Z,6.00
2023-03-16T02:01:51.760Z,6.80
2023-03-16T02:02:51.712Z,6.70
2023-03-16T02:03:51.701Z,7.30
2023-03-16T02:04:52.693Z,6.80
2023-03-16T02:05:51.681Z,7.20
2023-03-16T02:06:51.668Z,7.00
2023-03-16T02:07:51.660Z,6.60
2023-03-16T02:08:51.653Z,6.80
2023-03-16T02:09:51.666Z,6.90
2023-03-16T02:10:51.628Z,6.40
2023-03-16T02:11:51.620Z,5.70
2023-03-16T02:12:51.615Z,6.30
2023-03-16T02:13:51.603Z,6.40
2023-03-16T02:14:51.603Z,6.00
2023-03-16T02:15:51.693Z,6.50
2023-03-16T02:16:51.572Z,6.50
2023-03-16T02:17:51.561Z,6.60
2023-03-16T02:18:51.555Z,6.50
2023-03-16T02:19:51.548Z,6.10
2023-03-16T02:20:51.530Z,6.20
2023-03-16T02:21:51.518Z,6.40
2023-03-16T02:22:51.520Z,5.90
2023-03-16T02:23:51.533Z,6.00
2023-03-16T02:24:51.506Z,5.80
2023-03-16T02:25:51.480Z,6.50
2023-03-16T02:26:51.471Z,6.30
2023-03-16T02:27:51.454Z,7.10
2023-03-16T02:28:51.444Z,6.70
2023-03-16T02:29:51.439Z,7.70
2023-03-16T02:30:51.506Z,7.40
2023-03-16T02:31:51.409Z,6.90
2023-03-16T02:32:51.448Z,6.40
2023-03-16T02:33:51.396Z,5.80
2023-03-16T02:34:51.392Z,6.40
2023-03-16T02:35:51.416Z,6.40
2023-03-16T02:36:51.362Z,6.80
2023-03-16T02:37:51.352Z,7.00
2023-03-16T02:38:51.341Z,6.30
2023-03-16T02:39:51.338Z,7.10
2023-03-16T02:40:51.319Z,6.70
2023-03-16T02:41:51.309Z,6.60
2023-03-16T02:42:51.299Z,7.00
2023-03-16T02:43:51.294Z,6.70
2023-03-16T02:44:51.284Z,6.10
2023-03-16T02:45:51.304Z,5.60
2023-03-16T02:46:51.299Z,6.40
2023-03-16T02:47:51.243Z,6.50
2023-03-16T02:48:51.232Z,6.50
2023-03-16T02:49:51.233Z,6.10
2023-03-16T02:50:51.235Z,5.90
2023-03-16T02:51:51.216Z,6.30
2023-03-16T02:52:51.194Z,5.70
2023-03-16T02:53:51.206Z,5.30
2023-03-16T02:54:51.189Z,5.50
2023-03-16T02:55:51.162Z,5.90
2023-03-16T02:56:51.145Z,5.90
2023-03-16T02:57:51.137Z,5.70
2023-03-16T02:58:51.125Z,6.50
2023-03-16T02:59:51.121Z,5.60
2023-03-16T03:00:51.115Z,5.80
2023-03-16T03:01:51.101Z,6.70
2023-03-16T03:02:51.095Z,6.70
2023-03-16T03:03:51.076Z,6.50
2023-03-16T03:04:51.068Z,5.90
2023-03-16T03:05:51.070Z,6.40
2023-03-16T03:06:51.046Z,6.50
2023-03-16T03:07:51.036Z,6.20
2023-03-16T03:08:51.025Z,5.90
2023-03-16T03:09:51.017Z,5.70
2023-03-16T03:10:51.014Z,7.40
2023-03-16T03:11:50.997Z,7.60
2023-03-16T03:12:50.984Z,8.50
2023-03-16T03:13:50.981Z,6.90
2023-03-16T03:14:50.966Z,6.50
2023-03-16T03:15:51.069Z,6.70
2023-03-16T03:16:50.949Z,7.10
2023-03-16T03:17:50.933Z,6.80
2023-03-16T03:18:50.929Z,7.00
2023-03-16T03:19:50.921Z,6.20
2023-03-16T03:20:50.919Z,6.30
2023-03-16T03:21:50.900Z,6.20
2023-03-16T03:22:50.886Z,6.20
2023-03-16T03:23:50.881Z,6.60
2023-03-16T03:24:50.874Z,6.40
2023-03-16T03:25:50.887Z,6.50
2023-03-16T03:26:50.848Z,6.30
2023-03-16T03:27:50.978Z,5.70
2023-03-16T03:28:50.830Z,7.30
2023-03-16T03:29:50.821Z,6.90
2023-03-16T03:30:50.820Z,7.20
2023-03-16T03:31:50.851Z,8.10
2023-03-16T03:32:50.824Z,7.50
2023-03-16T03:33:50.782Z,7.20
2023-03-16T03:34:50.772Z,7.90
2023-03-16T03:35:50.779Z,7.90
2023-03-16T03:36:50.749Z,11.60
2023-03-16T03:37:50.756Z,17.70
2023-03-16T03:38:50.729Z,15.80
2023-03-16T03:39:50.732Z,12.20
2023-03-16T03:40:50.724Z,12.40
2023-03-16T03:41:50.705Z,12.00
2023-03-16T03:42:50.697Z,10.50
2023-03-16T03:43:50.689Z,10.70
2023-03-16T03:44:50.673Z,14.10
2023-03-16T03:45:50.716Z,14.80
2023-03-16T03:46:50.736Z,18.80
2023-03-16T03:47:50.648Z,12.20
2023-03-16T03:48:50.635Z,12.30
2023-03-16T03:49:50.636Z,12.20
2023-03-16T03:50:50.627Z,13.80
2023-03-16T03:51:50.607Z,12.80
2023-03-16T03:52:50.594Z,14.60
2023-03-16T03:53:50.587Z,11.90
2023-03-16T03:54:50.575Z,14.30
2023-03-16T03:55:50.588Z,12.90
2023-03-16T03:56:50.553Z,14.40
2023-03-16T03:57:50.560Z,13.70
2023-03-16T03:58:50.540Z,12.00
2023-03-16T03:59:50.532Z,15.60
2023-03-16T04:00:50.527Z,16.20
2023-03-16T04:01:50.536Z,18.70
2023-03-16T04:02:50.616Z,19.30
2023-03-16T04:03:50.498Z,21.10
2023-03-16T04:04:50.481Z,18.50
2023-03-16T04:05:50.484Z,13.20
2023-03-16T04:06:50.459Z,13.00
2023-03-16T04:07:50.454Z,13.30
2023-03-16T04:08:50.441Z,14.00
2023-03-16T04:09:50.428Z,15.40
2023-03-16T04:10:50.425Z,16.10
2023-03-16T04:11:50.412Z,16.90
2023-03-16T04:12:50.398Z,18.60
2023-03-16T04:13:50.390Z,15.40
2023-03-16T04:14:50.382Z,23.30
2023-03-16T04:15:50.374Z,20.30
2023-03-16T04:16:50.414Z,20.40
2023-03-16T04:17:50.349Z,19.20
2023-03-16T04:18:50.331Z,18.40
2023-03-16T04:19:50.331Z,16.30
2023-03-16T04:20:50.328Z,15.90
2023-03-16T04:21:50.311Z,20.40
2023-03-16T04:22:50.296Z,27.70
2023-03-16T04:23:50.283Z,33.80
2023-03-16T04:24:50.271Z,26.80
2023-03-16T04:25:50.279Z,25.30
2023-03-16T04:26:50.253Z,23.30
2023-03-16T04:27:51.369Z,26.90
2023-03-16T04:28:51.355Z,28.20
2023-03-16T04:29:51.347Z,28.70
2023-03-16T04:30:51.434Z,21.90
2023-03-16T04:31:51.332Z,19.20
2023-03-16T04:32:51.390Z,14.80
2023-03-16T04:33:51.309Z,19.50
2023-03-16T04:34:51.300Z,16.50
2023-03-16T04:35:51.341Z,19.10
2023-03-16T04:36:51.281Z,21.90
2023-03-16T04:37:51.282Z,27.20
2023-03-16T04:38:51.262Z,22.90
2023-03-16T04:39:51.251Z,20.60
2023-03-16T04:40:51.253Z,15.20
2023-03-16T04:41:51.235Z,15.30
2023-03-16T04:42:51.218Z,14.90
2023-03-16T04:43:51.220Z,15.30
2023-03-16T04:44:51.205Z,15.40
2023-03-16T04:45:52.252Z,22.10
2023-03-16T04:46:51.184Z,14.40
2023-03-16T04:47:51.180Z,14.80
2023-03-16T04:48:51.167Z,14.40
2023-03-16T04:49:51.159Z,14.60
2023-03-16T04:50:51.161Z,12.60
2023-03-16T04:51:51.145Z,13.90
2023-03-16T04:52:51.132Z,14.50
2023-03-16T04:53:51.119Z,15.30
2023-03-16T04:54:51.109Z,15.60
2023-03-16T04:55:51.139Z,13.40
2023-03-16T04:56:51.090Z,16.10
2023-03-16T04:57:51.078Z,17.40
2023-03-16T04:58:51.061Z,21.20
2023-03-16T04:59:51.070Z,22.50
2023-03-16T05:00:51.066Z,15.90
2023-03-16T05:01:51.089Z,15.20
2023-03-16T05:02:51.029Z,12.70
2023-03-16T05:03:51.031Z,14.50
2023-03-16T05:04:51.009Z,21.40
2023-03-16T05:05:51.074Z,23.10
2023-03-16T05:06:51.006Z,24.10
2023-03-16T05:07:51.005Z,26.60
2023-03-16T05:08:51.153Z,24.30
2023-03-16T05:09:50.968Z,25.10
2023-03-16T05:10:50.961Z,26.00
2023-03-16T05:11:50.948Z,22.60
2023-03-16T05:12:50.935Z,24.40
2023-03-16T05:13:50.926Z,26.50
2023-03-16T05:14:50.920Z,27.10
2023-03-16T05:15:50.946Z,29.00
2023-03-16T05:16:50.913Z,27.90
2023-03-16T05:17:50.892Z,27.10
2023-03-16T05:18:50.881Z,32.00
2023-03-16T05:19:50.870Z,27.90
2023-03-16T05:20:50.862Z,25.40
2023-03-16T05:21:50.864Z,26.30
2023-03-16T05:22:50.843Z,27.20
2023-03-16T05:23:50.826Z,30.30
2023-03-16T05:24:50.820Z,35.90
2023-03-16T05:25:50.828Z,34.50
2023-03-16T05:26:50.805Z,36.10
2023-03-16T05:27:50.792Z,33.00
2023-03-16T05:28:50.782Z,33.60
2023-03-16T05:29:50.778Z,32.00
2023-03-16T05:30:50.761Z,38.70
2023-03-16T05:31:50.754Z,31.30
2023-03-16T05:32:50.770Z,30.30
2023-03-16T05:33:50.729Z,30.10
2023-03-16T05:34:50.721Z,38.00
2023-03-16T05:35:55.051Z,30.90
2023-03-16T05:36:50.706Z,35.20
2023-03-16T05:37:51.686Z,31.30
2023-03-16T05:38:50.682Z,29.30
2023-03-16T05:39:50.677Z,32.60
2023-03-16T05:40:50.648Z,29.00
2023-03-16T05:41:51.659Z,32.20
2023-03-16T05:42:50.641Z,28.60
2023-03-16T05:43:50.638Z,31.50
2023-03-16T05:44:50.624Z,29.40
2023-03-16T05:45:50.609Z,24.30
2023-03-16T05:46:50.650Z,26.00
2023-03-16T05:47:50.611Z,21.30
2023-03-16T05:48:50.589Z,16.80
2023-03-16T05:49:50.584Z,18.70
2023-03-16T05:50:50.584Z,16.20
2023-03-16T05:51:50.562Z,14.90
2023-03-16T05:52:50.540Z,15.80
2023-03-16T05:53:50.541Z,16.60
2023-03-16T05:54:50.528Z,14.90
2023-03-16T05:55:50.518Z,14.60
2023-03-16T05:56:50.512Z,15.70
2023-03-16T05:57:50.497Z,18.40
2023-03-16T05:58:50.487Z,14.50
2023-03-16T05:59:50.486Z,18.80
2023-03-16T06:00:50.469Z,19.90
2023-03-16T06:01:50.477Z,12.70
2023-03-16T06:02:50.458Z,13.80
2023-03-16T06:03:50.461Z,15.60
2023-03-16T06:04:50.481Z,13.40
2023-03-16T06:05:50.424Z,15.40
2023-03-16T06:06:50.426Z,16.20
2023-03-16T06:07:50.410Z,14.70
2023-03-16T06:08:50.394Z,14.00
2023-03-16T06:09:50.389Z,15.30
2023-03-16T06:10:50.377Z,13.80
2023-03-16T06:11:50.417Z,17.70
2023-03-16T06:12:50.358Z,16.70
2023-03-16T06:13:50.356Z,19.50
2023-03-16T06:14:50.339Z,20.10
2023-03-16T06:15:50.382Z,22.00
2023-03-16T06:16:50.331Z,20.40
2023-03-16T06:17:50.313Z,22.40
2023-03-16T06:18:50.308Z,20.50
2023-03-16T06:19:50.300Z,22.40
2023-03-16T06:20:50.277Z,24.60
2023-03-16T06:21:50.298Z,23.00
2023-03-16T06:22:50.259Z,23.40
2023-03-16T06:23:50.253Z,24.80
2023-03-16T06:24:50.239Z,24.00
2023-03-16T06:25:50.238Z,25.80
2023-03-16T06:26:50.239Z,25.20
2023-03-16T06:27:50.212Z,25.10
2023-03-16T06:28:50.201Z,24.70
2023-03-16T06:29:50.192Z,21.60
2023-03-16T06:30:50.183Z,20.30
2023-03-16T06:31:50.267Z,20.00
2023-03-16T06:32:50.186Z,24.00
2023-03-16T06:33:50.155Z,26.90
2023-03-16T06:34:50.150Z,24.70
2023-03-16T06:35:50.192Z,25.80
2023-03-16T06:36:50.152Z,25.10
2023-03-16T06:37:50.112Z,26.50
2023-03-16T06:38:51.106Z,31.30
2023-03-16T06:39:50.110Z,28.70
2023-03-16T06:40:50.092Z,28.60
2023-03-16T06:41:50.095Z,24.90
2023-03-16T06:42:51.404Z,23.10
2023-03-16T06:43:50.071Z,18.00
2023-03-16T06:44:50.063Z,19.80
2023-03-16T06:45:50.094Z,19.80
2023-03-16T06:46:50.044Z,16.90
2023-03-16T06:47:50.734Z,16.40
2023-03-16T06:48:50.012Z,14.00
2023-03-16T06:49:49.999Z,14.40
2023-03-16T06:50:49.993Z,14.40
2023-03-16T06:51:49.993Z,14.10
2023-03-16T06:52:49.984Z,12.20
2023-03-16T06:53:49.970Z,11.60
2023-03-16T06:54:49.962Z,11.00
2023-03-16T06:55:49.959Z,12.00
2023-03-16T06:56:49.954Z,11.20
2023-03-16T06:57:49.932Z,12.20
2023-03-16T06:58:49.919Z,11.30
2023-03-16T07:00:04.761Z,10.90
2023-03-16T07:00:52.763Z,10.60
2023-03-16T07:01:50.292Z,10.70
2023-03-16T07:02:49.931Z,12.50
2023-03-16T07:03:49.907Z,12.10
2023-03-16T07:04:50.864Z,11.70
2023-03-16T07:05:49.929Z,11.60
2023-03-16T07:06:50.743Z,12.10
2023-03-16T07:07:56.671Z,14.00
2023-03-16T07:08:50.147Z,12.30
2023-03-16T07:09:49.861Z,12.50
2023-03-16T07:10:49.832Z,12.40
2023-03-16T07:11:49.804Z,11.60
2023-03-16T07:12:49.913Z,11.20
2023-03-16T07:13:50.769Z,10.20
2023-03-16T07:14:53.651Z,11.90
2023-03-16T07:15:50.969Z,11.50
2023-03-16T07:16:49.813Z,12.10
2023-03-16T07:17:49.891Z,13.80
2023-03-16T07:19:17.356Z,12.90
2023-03-16T07:19:49.772Z,12.90
2023-03-16T07:20:49.727Z,12.50
2023-03-16T07:21:49.732Z,12.40
2023-03-16T07:22:49.685Z,13.70
2023-03-16T07:23:49.746Z,11.00
2023-03-16T07:24:49.692Z,10.90
2023-03-16T07:25:49.762Z,12.00
2023-03-16T07:26:49.678Z,11.70
2023-03-16T07:27:51.911Z,11.00
2023-03-16T07:28:50.628Z,11.60
2023-03-16T07:29:49.638Z,12.60
2023-03-16T07:31:02.824Z,11.50
2023-03-16T07:31:51.655Z,11.20
2023-03-16T07:32:49.695Z,10.90
2023-03-16T07:33:49.599Z,10.50
2023-03-16T07:34:49.601Z,10.80
2023-03-16T07:35:49.618Z,10.90
2023-03-16T07:36:49.635Z,11.20
2023-03-16T07:37:49.533Z,11.30
2023-03-16T07:38:49.531Z,10.80
2023-03-16T07:39:49.524Z,11.80
2023-03-16T07:40:49.566Z,11.20
2023-03-16T07:41:49.512Z,10.70
2023-03-16T07:42:49.520Z,10.90
2023-03-16T07:43:49.481Z,10.30
2023-03-16T07:44:51.670Z,11.00
2023-03-16T07:45:49.512Z,10.90
2023-03-16T07:46:49.458Z,10.80
2023-03-16T07:47:49.449Z,10.40
2023-03-16T07:48:49.457Z,10.90
2023-03-16T07:49:49.458Z,11.80
2023-03-16T07:50:49.429Z,10.80
2023-03-16T07:51:49.416Z,11.20
2023-03-16T07:52:49.455Z,10.70
2023-03-16T07:53:49.399Z,10.80
2023-03-16T07:54:49.397Z,11.30
2023-03-16T07:55:49.360Z,12.00
2023-03-16T07:56:50.022Z,11.60
2023-03-16T07:57:50.407Z,11.00
2023-03-16T07:58:49.365Z,11.60
2023-03-16T07:59:49.342Z,10.80
2023-03-16T08:00:49.327Z,11.20
2023-03-16T08:01:49.341Z,10.90
2023-03-16T08:02:49.361Z,10.60
2023-03-16T08:03:49.328Z,11.70
2023-03-16T08:04:49.323Z,9.60
2023-03-16T08:05:49.263Z,10.10
2023-03-16T08:06:49.321Z,9.60
2023-03-16T08:07:49.256Z,9.60
2023-03-16T08:08:49.262Z,10.30
2023-03-16T08:09:49.257Z,8.60
2023-03-16T08:10:49.236Z,8.80
2023-03-16T08:11:49.205Z,9.50
2023-03-16T08:12:49.240Z,8.50
2023-03-16T08:13:49.179Z,8.70
2023-03-16T08:14:49.194Z,8.40
2023-03-16T08:15:49.214Z,8.10
2023-03-16T08:16:49.161Z,8.10
2023-03-16T08:17:49.166Z,8.10
2023-03-16T08:18:49.146Z,8.30
2023-03-16T08:19:49.144Z,7.50
2023-03-16T08:20:49.147Z,7.10
2023-03-16T08:22:00.969Z,7.40
2023-03-16T08:22:51.117Z,7.70
2023-03-16T08:23:49.089Z,6.70
2023-03-16T08:24:49.090Z,6.60
2023-03-16T08:25:49.066Z,6.90
2023-03-16T08:26:49.065Z,6.80
2023-03-16T08:27:49.069Z,6.90
2023-03-16T08:28:49.110Z,7.20
2023-03-16T08:29:49.025Z,7.20
2023-03-16T08:30:49.173Z,7.00
2023-03-16T08:31:49.041Z,6.90
2023-03-16T08:32:49.025Z,7.10
2023-03-16T08:33:49.006Z,7.90
2023-03-16T08:34:49.027Z,6.50
2023-03-16T08:35:49.084Z,7.20
2023-03-16T08:36:48.982Z,7.00
2023-03-16T08:37:49.010Z,7.20
2023-03-16T08:39:05.538Z,7.30
2023-03-16T08:39:50.934Z,7.30
2023-03-16T08:40:48.983Z,7.50
2023-03-16T08:41:48.925Z,7.50
2023-03-16T08:42:48.946Z,7.30
2023-03-16T08:43:48.893Z,7.20
2023-03-16T08:44:55.813Z,6.90
2023-03-16T08:45:48.872Z,6.90
2023-03-16T08:46:48.977Z,6.20
2023-03-16T08:48:04.183Z,6.40
2023-03-16T08:48:48.919Z,6.10
2023-03-16T08:49:48.860Z,6.50
2023-03-16T08:50:48.889Z,6.40
2023-03-16T08:51:48.846Z,6.40
2023-03-16T08:52:48.822Z,6.10
2023-03-16T08:53:48.832Z,7.10
2023-03-16T08:55:02.010Z,6.00
2023-03-16T08:55:57.260Z,5.30
2023-03-16T08:56:48.783Z,4.90
2023-03-16T08:57:49.707Z,5.70
2023-03-16T08:58:50.554Z,5.70
2023-03-16T08:59:48.755Z,5.60
2023-03-16T09:00:50.528Z,4.70
2023-03-16T09:01:49.815Z,5.40
2023-03-16T09:02:49.731Z,4.10
2023-03-16T09:03:48.706Z,4.30
2023-03-16T09:04:48.714Z,4.20
2023-03-16T09:05:48.679Z,4.30
2023-03-16T09:06:55.842Z,3.70
2023-03-16T09:07:50.682Z,3.90
2023-03-16T09:08:48.649Z,3.80
2023-03-16T09:09:48.651Z,3.70
2023-03-16T09:10:48.630Z,3.40
2023-03-16T09:11:48.624Z,3.40
2023-03-16T09:12:48.628Z,3.10
2023-03-16T09:13:48.936Z,3.50
2023-03-16T09:14:48.593Z,3.30
2023-03-16T09:15:48.649Z,3.50
2023-03-16T09:16:48.581Z,3.20
2023-03-16T09:17:48.627Z,3.10
2023-03-16T09:18:48.564Z,3.20
2023-03-16T09:19:51.717Z,3.30
2023-03-16T09:20:49.551Z,2.80
2023-03-16T09:21:49.534Z,3.00
2023-03-16T09:22:48.521Z,2.80
2023-03-16T09:24:12.735Z,3.00
2023-03-16T09:25:20.191Z,2.90
2023-03-16T09:25:48.497Z,3.50
2023-03-16T09:26:48.502Z,3.20
2023-03-16T09:27:48.512Z,2.80
2023-03-16T09:28:48.461Z,2.60
2023-03-16T09:29:48.453Z,3.30
2023-03-16T09:30:48.442Z,3.20
2023-03-16T09:31:48.462Z,2.90
2023-03-16T09:32:48.461Z,2.40
2023-03-16T09:33:48.447Z,2.30
2023-03-16T09:34:48.408Z,2.60
2023-03-16T09:35:48.421Z,2.60
2023-03-16T09:36:48.531Z,2.30
2023-03-16T09:38:05.121Z,2.60
2023-03-16T09:38:50.414Z,2.60
2023-03-16T09:39:48.395Z,2.50
2023-03-16T09:40:48.379Z,2.40
2023-03-16T09:41:48.353Z,2.70
2023-03-16T09:42:48.345Z,2.80
2023-03-16T09:43:48.348Z,2.30
2023-03-16T09:44:48.348Z,2.20
2023-03-16T09:45:48.376Z,2.00
2023-03-16T09:46:48.323Z,2.20
2023-03-16T09:47:48.291Z,2.20
2023-03-16T09:48:48.299Z,2.70
2023-03-16T09:49:48.273Z,2.60
2023-03-16T09:50:49.629Z,2.60
2023-03-16T09:51:49.267Z,2.20
2023-03-16T09:52:48.257Z,2.60
2023-03-16T09:53:48.227Z,2.30
2023-03-16T09:54:48.215Z,2.60
2023-03-16T09:58:57.337Z,1.60
2023-03-16T09:59:40.705Z,1.90
2023-03-16T10:00:40.689Z,1.70
2023-03-16T10:01:40.666Z,2.00
2023-03-16T10:02:40.666Z,2.10
2023-03-16T10:03:40.666Z,2.00
2023-03-16T10:04:40.657Z,1.90
2023-03-16T10:05:40.654Z,2.20
2023-03-16T10:06:40.632Z,1.90
2023-03-16T10:07:40.592Z,1.90
2023-03-16T10:08:40.863Z,1.80
2023-03-16T10:09:40.577Z,1.90
2023-03-16T10:10:40.580Z,1.80
2023-03-16T10:11:40.558Z,2.00
2023-03-16T10:12:40.570Z,1.70
2023-03-16T10:13:40.547Z,1.60
2023-03-16T10:14:40.563Z,1.50
2023-03-16T10:15:40.503Z,2.00
2023-03-16T10:16:40.588Z,1.50
2023-03-16T10:17:40.590Z,1.70
2023-03-16T10:18:40.515Z,3.00
2023-03-16T10:19:40.490Z,1.70
2023-03-16T10:20:40.503Z,1.40
2023-03-16T10:21:40.454Z,2.00
2023-03-16T10:22:40.444Z,1.40
2023-03-16T10:23:41.590Z,1.30
2023-03-16T10:24:40.447Z,1.10
2023-03-16T10:25:40.407Z,1.30
2023-03-16T10:26:40.394Z,1.00
2023-03-16T10:27:40.410Z,1.20
2023-03-16T10:28:40.414Z,1.10
2023-03-16T10:29:40.360Z,1.00
2023-03-16T10:30:41.855Z,1.00
2023-03-16T10:31:40.411Z,1.10
2023-03-16T10:32:40.360Z,1.30
2023-03-16T10:33:40.355Z,1.50
2023-03-16T10:34:40.331Z,1.00
2023-03-16T10:35:40.307Z,1.40
2023-03-16T10:36:40.325Z,1.30
2023-03-16T10:37:40.294Z,1.10
2023-03-16T10:38:40.384Z,1.20
2023-03-16T10:39:40.288Z,1.40
2023-03-16T10:40:40.305Z,1.30
2023-03-16T10:41:40.241Z,1.10
2023-03-16T10:42:40.245Z,1.40
2023-03-16T10:43:40.263Z,1.20
2023-03-16T10:44:40.248Z,1.30
2023-03-16T10:45:40.245Z,1.00
2023-03-16T10:46:40.398Z,0.90
2023-03-16T10:47:40.187Z,1.40
2023-03-16T10:48:40.189Z,1.30
2023-03-16T10:49:40.169Z,1.30
2023-03-16T10:50:40.176Z,1.10
2023-03-16T10:51:40.171Z,1.20
2023-03-16T10:52:40.158Z,1.10
2023-03-16T10:53:40.144Z,1.30
2023-03-16T10:54:40.244Z,1.10
2023-03-16T10:55:54.819Z,1.40
2023-03-16T10:56:40.128Z,1.50
2023-03-16T10:57:40.260Z,1.00
2023-03-16T11:00:06.058Z,2.10
2023-03-16T11:01:06.074Z,1.20
2023-03-16T11:02:06.050Z,1.00
2023-03-16T11:03:06.033Z,1.20
2023-03-16T11:04:06.060Z,1.20
2023-03-16T11:05:06.046Z,1.20
2023-03-16T11:06:05.995Z,1.20
2023-03-16T11:07:05.989Z,1.00
2023-03-16T11:08:05.976Z,1.20
2023-03-16T11:09:06.470Z,1.20
2023-03-16T11:10:05.979Z,1.10
2023-03-16T11:11:05.955Z,1.20
2023-03-16T11:12:05.953Z,1.10
2023-03-16T11:13:05.945Z,1.10
2023-03-16T11:14:05.938Z,1.40
2023-03-16T11:15:09.382Z,1.00
2023-03-16T11:16:06.906Z,1.30
2023-03-16T11:17:05.937Z,1.20
2023-03-16T11:18:05.889Z,1.10
2023-03-16T11:19:05.906Z,1.10
2023-03-16T11:20:05.851Z,1.20
2023-03-16T11:21:05.866Z,1.00
2023-03-16T11:22:05.824Z,0.80
2023-03-16T11:23:05.842Z,1.40
2023-03-16T11:24:05.855Z,1.00
2023-03-16T11:25:05.797Z,1.10
2023-03-16T11:26:05.800Z,1.30
2023-03-16T11:27:05.772Z,1.20
2023-03-16T11:28:05.759Z,1.20
2023-03-16T11:29:05.765Z,1.50
2023-03-16T11:30:06.238Z,1.00
2023-03-16T11:31:05.776Z,1.40
2023-03-16T11:32:05.749Z,1.10
2023-03-16T11:33:05.800Z,1.00
2023-03-16T11:34:05.900Z,1.00
2023-03-16T11:35:05.708Z,1.00
2023-03-16T11:36:05.699Z,1.10
2023-03-16T11:37:05.687Z,1.00
2023-03-16T11:38:05.660Z,0.90
2023-03-16T11:39:05.682Z,1.00
2023-03-16T11:40:05.688Z,0.80
2023-03-16T11:41:05.661Z,0.70
2023-03-16T11:42:05.635Z,1.00
2023-03-16T11:43:05.607Z,0.90
2023-03-16T11:44:05.646Z,1.30
2023-03-16T11:45:05.663Z,0.80
2023-03-16T11:46:05.628Z,1.00
2023-03-16T11:47:05.588Z,0.90
2023-03-16T11:48:05.562Z,0.90
2023-03-16T12:33:40.306Z,1.70
2023-03-16T12:34:40.251Z,1.60
2023-03-16T12:35:40.271Z,1.60
2023-03-16T12:36:40.233Z,1.20
2023-03-16T12:37:40.227Z,1.40
2023-03-16T12:38:40.251Z,1.20
2023-03-16T12:39:40.306Z,1.40
2023-03-16T12:40:40.720Z,1.70
2023-03-16T12:41:40.185Z,1.60
2023-03-16T12:42:40.166Z,1.40
2023-03-16T12:43:40.168Z,1.50
2023-03-16T12:44:40.154Z,1.70
2023-03-16T12:45:40.178Z,1.60
2023-03-16T12:46:41.336Z,1.70
2023-03-16T12:47:41.309Z,1.60
2023-03-16T12:48:41.272Z,1.80
2023-03-16T12:49:41.355Z,1.20
2023-03-16T12:50:41.318Z,1.60
2023-03-16T12:51:41.303Z,1.40
2023-03-16T12:52:41.223Z,1.40
2023-03-16T12:53:41.254Z,1.40
2023-03-16T12:54:42.180Z,1.70
2023-03-16T12:55:41.224Z,1.50
2023-03-16T12:56:41.196Z,1.10
2023-03-16T12:57:41.207Z,1.60
2023-03-16T12:58:41.180Z,1.60
2023-03-16T12:59:41.211Z,1.50
2023-03-16T13:00:41.289Z,1.60
2023-03-16T13:01:41.264Z,1.30
2023-03-16T13:02:41.169Z,1.50
2023-03-16T13:03:41.506Z,1.60
2023-03-16T13:04:41.173Z,1.90
2023-03-16T13:05:41.128Z,1.50
2023-03-16T13:06:41.209Z,1.20
2023-03-16T13:07:41.153Z,1.30
2023-03-16T13:08:41.102Z,1.70
2023-03-16T13:09:41.104Z,1.60
2023-03-16T13:10:41.183Z,1.60
2023-03-16T13:11:41.143Z,1.70
2023-03-16T13:12:41.090Z,1.40
2023-03-16T13:13:41.103Z,1.60
2023-03-16T13:14:41.172Z,1.60
2023-03-16T13:15:41.147Z,1.80
2023-03-16T13:16:41.207Z,2.00
2023-03-16T13:17:41.136Z,2.50
2023-03-16T13:18:40.990Z,2.50
2023-03-16T13:19:41.025Z,2.80
2023-03-16T13:20:41.039Z,2.90
2023-03-16T13:21:41.057Z,2.70
2023-03-16T13:22:41.114Z,2.60
2023-03-16T13:23:41.074Z,2.40
2023-03-16T13:24:40.980Z,2.60
2023-03-16T13:25:40.934Z,2.60
2023-03-16T13:26:40.940Z,2.70
2023-03-16T13:27:40.969Z,2.50
2023-03-16T13:28:40.908Z,2.50
2023-03-16T13:29:40.874Z,2.60
2023-03-16T13:30:40.947Z,2.80
2023-03-16T13:31:40.929Z,3.00
2023-03-16T13:32:40.947Z,2.80
2023-03-16T13:33:41.960Z,2.90
2023-03-16T13:34:40.863Z,2.80
2023-03-16T13:35:40.991Z,2.90
2023-03-16T13:36:40.867Z,3.00
2023-03-16T13:37:40.838Z,2.70
2023-03-16T13:38:40.822Z,2.70
2023-03-16T13:39:40.774Z,3.10
2023-03-16T13:40:40.823Z,2.60
2023-03-16T13:41:43.207Z,2.50
2023-03-16T13:42:40.838Z,2.80
2023-03-16T13:43:40.780Z,2.80
2023-03-16T13:44:40.813Z,2.60
2023-03-16T13:45:40.734Z,2.60
2023-03-16T13:46:40.737Z,2.50
2023-03-16T13:47:40.730Z,2.60
2023-03-16T13:48:40.796Z,2.20
2023-03-16T13:49:40.763Z,2.70
2023-03-16T13:50:40.662Z,2.60
2023-03-16T13:51:40.865Z,2.60
2023-03-16T13:52:40.717Z,2.60
2023-03-16T13:53:40.663Z,2.70
2023-03-16T13:54:40.641Z,2.60
2023-03-16T13:55:40.634Z,2.70
2023-03-16T13:56:40.639Z,2.60
2023-03-16T13:57:40.624Z,2.30
2023-03-16T13:58:40.606Z,2.60
2023-03-16T13:59:40.622Z,2.70